createdAt,value
2023-02-13T00:03:11.749Z,7.78
2023-02-13T00:08:26.663Z,6.80
2023-02-13T00:13:41.727Z,8.35
2023-02-13T00:18:56.683Z,7.90
2023-02-13T00:24:11.720Z,6.88
2023-02-13T00:29:26.711Z,7.38
2023-02-13T00:34:41.660Z,7.70
2023-02-13T00:39:57.073Z,6.63
2023-02-13T00:45:13.044Z,7.65
2023-02-13T00:50:28.705Z,6.85
2023-02-13T00:55:45.070Z,7.63
2023-02-13T01:01:00.735Z,7.10
2023-02-13T01:06:16.674Z,7.60
2023-02-13T01:11:32.122Z,7.43
2023-02-13T01:16:48.002Z,8.40
2023-02-13T01:22:04.057Z,7.28
2023-02-13T01:27:19.751Z,6.85
2023-02-13T01:32:34.670Z,7.32
2023-02-13T01:37:49.699Z,6.70
2023-02-13T01:43:05.706Z,6.50
2023-02-13T01:48:20.964Z,6.28
2023-02-13T01:53:36.734Z,6.95
2023-02-13T01:58:52.709Z,7.13
2023-02-13T02:04:07.717Z,6.32
2023-02-13T02:09:22.820Z,6.25
2023-02-13T02:14:37.710Z,7.00
2023-02-13T02:19:52.733Z,7.25
2023-02-13T02:25:09.661Z,7.70
2023-02-13T02:30:24.739Z,7.22
2023-02-13T02:35:40.004Z,7.03
2023-02-13T02:40:55.935Z,7.63
2023-02-13T02:46:14.539Z,7.35
2023-02-13T02:51:29.771Z,7.03
2023-02-13T02:56:44.732Z,7.70
2023-02-13T03:02:00.046Z,7.43
2023-02-13T03:07:15.734Z,7.47
2023-02-13T03:12:30.752Z,6.80
2023-02-13T03:17:45.719Z,6.65
2023-02-13T03:23:00.782Z,6.03
2023-02-13T03:28:15.835Z,5.85
2023-02-13T03:33:30.759Z,5.30
2023-02-13T03:38:45.768Z,5.18
2023-02-13T03:44:01.047Z,5.40
2023-02-13T03:49:16.719Z,5.45
2023-02-13T03:54:31.676Z,5.22
2023-02-13T03:59:46.729Z,5.22
2023-02-13T04:05:01.727Z,5.50
2023-02-13T04:10:17.487Z,4.95
2023-02-13T04:15:33.045Z,4.60
2023-02-13T04:20:48.690Z,5.72
2023-02-13T04:26:03.772Z,5.63
2023-02-13T04:31:18.732Z,5.95
2023-02-13T04:36:33.681Z,6.53
2023-02-13T04:41:48.745Z,5.97
2023-02-13T04:47:04.700Z,5.78
2023-02-13T04:52:19.969Z,5.25
2023-02-13T04:57:35.741Z,5.30
2023-02-13T05:02:51.013Z,5.80
2023-02-13T05:08:06.668Z,4.55
2023-02-13T05:13:21.708Z,5.25
2023-02-13T05:18:36.674Z,5.22
2023-02-13T05:23:51.739Z,4.93
2023-02-13T05:29:06.695Z,4.88
2023-02-13T05:34:21.680Z,5.45
2023-02-13T05:39:36.741Z,4.53
2023-02-13T05:44:51.810Z,5.13
2023-02-13T05:50:06.775Z,5.38
2023-02-13T05:55:22.079Z,4.80
2023-02-13T06:00:37.786Z,4.97
2023-02-13T06:05:52.726Z,5.18
2023-02-13T06:11:07.766Z,4.95
2023-02-13T06:16:22.555Z,4.80
2023-02-13T06:21:37.754Z,6.13
2023-02-13T06:26:52.718Z,5.90
2023-02-13T06:32:07.727Z,5.22
2023-02-13T06:37:22.478Z,5.18
2023-02-13T06:42:37.757Z,5.03
2023-02-13T06:47:52.693Z,5.47
2023-02-13T06:53:07.815Z,5.25
2023-02-13T06:58:23.012Z,5.55
2023-02-13T07:03:38.712Z,6.75
2023-02-13T07:08:54.049Z,6.70
2023-02-13T07:14:09.785Z,6.18
2023-02-13T07:19:24.506Z,6.68
2023-02-13T07:24:39.690Z,7.38
2023-02-13T07:29:54.803Z,6.80
2023-02-13T07:35:09.984Z,5.28
2023-02-13T07:40:25.738Z,6.63
2023-02-13T07:45:41.056Z,6.32
2023-02-13T07:50:56.969Z,6.15
2023-02-13T07:56:12.763Z,5.82
2023-02-13T08:01:27.863Z,5.85
2023-02-13T08:06:42.874Z,5.43
2023-02-13T08:11:57.754Z,6.13
2023-02-13T08:17:12.771Z,6.15
2023-02-13T08:22:27.705Z,5.45
2023-02-13T08:27:43.082Z,5.50
2023-02-13T08:32:58.783Z,6.22
2023-02-13T08:38:13.768Z,5.57
2023-02-13T08:43:28.718Z,5.82
2023-02-13T08:48:43.763Z,6.30
2023-02-13T08:53:58.703Z,5.78
2023-02-13T08:59:13.776Z,6.25
2023-02-13T09:04:28.710Z,5.88
2023-02-13T09:09:44.034Z,6.75
2023-02-13T09:14:59.755Z,6.40
2023-02-13T09:20:14.755Z,5.82
2023-02-13T09:25:29.523Z,7.15
2023-02-13T09:30:45.188Z,6.43
2023-02-13T09:36:01.094Z,6.38
2023-02-13T09:41:17.428Z,6.85
2023-02-13T09:46:32.833Z,6.57
2023-02-13T09:51:47.778Z,6.28
2023-02-13T09:57:02.796Z,6.97
2023-02-13T10:02:17.759Z,6.20
2023-02-13T10:07:32.763Z,6.72
2023-02-13T10:12:47.826Z,6.20
2023-02-13T10:18:02.774Z,6.00
2023-02-13T10:23:17.722Z,6.32
2023-02-13T10:28:32.814Z,6.38
2023-02-13T10:33:47.763Z,6.70
2023-02-13T10:39:02.781Z,6.18
2023-02-13T10:44:18.042Z,5.20
2023-02-13T10:49:33.729Z,5.45
2023-02-13T10:54:49.129Z,5.40
2023-02-13T11:00:04.767Z,5.53
2023-02-13T11:05:19.480Z,5.72
2023-02-13T11:10:34.794Z,5.47
2023-02-13T11:15:50.079Z,5.00
2023-02-13T11:21:05.724Z,5.65
2023-02-13T11:26:21.063Z,5.53
2023-02-13T11:31:36.882Z,4.95
2023-02-13T11:36:52.775Z,5.20
2023-02-13T11:42:07.867Z,4.22
2023-02-13T11:47:22.818Z,5.32
2023-02-13T11:52:37.545Z,4.47
2023-02-13T11:57:53.107Z,4.78
2023-02-13T12:03:08.845Z,4.68
2023-02-13T12:08:23.753Z,5.15
2023-02-13T12:13:38.784Z,4.57
2023-02-13T12:18:53.836Z,4.57
2023-02-13T12:24:08.754Z,5.00
2023-02-13T12:29:23.808Z,5.13
2023-02-13T12:34:38.766Z,4.35
2023-02-13T12:39:53.810Z,5.32
2023-02-13T12:45:09.095Z,4.68
2023-02-13T12:50:25.109Z,4.68
2023-02-13T12:55:40.765Z,4.80
2023-02-13T13:00:55.927Z,4.22
2023-02-13T13:06:12.517Z,4.20
2023-02-13T13:11:27.741Z,4.88
2023-02-13T13:16:42.816Z,5.15
2023-02-13T13:21:59.027Z,3.80
2023-02-13T13:27:14.525Z,4.25
2023-02-13T13:32:29.730Z,4.55
2023-02-13T13:37:44.770Z,3.78
2023-02-13T13:42:59.849Z,8.30
2023-02-13T13:48:15.080Z,8.90
2023-02-13T13:53:30.490Z,9.13
2023-02-13T13:58:45.562Z,10.10
2023-02-13T14:04:00.783Z,11.18
2023-02-13T14:09:17.202Z,12.43
2023-02-13T14:14:32.809Z,13.05
2023-02-13T14:19:47.762Z,12.25
2023-02-13T14:25:03.090Z,13.88
2023-02-13T14:30:18.870Z,13.85
2023-02-13T14:35:33.787Z,13.68
2023-02-13T14:40:48.722Z,13.05
2023-02-13T14:46:03.777Z,12.82
2023-02-13T14:51:18.798Z,11.93
2023-02-13T14:56:33.747Z,12.68
2023-02-13T15:01:49.754Z,12.07
2023-02-13T15:07:05.506Z,10.63
2023-02-13T15:12:20.756Z,11.32
2023-02-13T15:17:36.239Z,11.25
2023-02-13T15:22:51.745Z,9.75
2023-02-13T15:28:06.762Z,10.05
2023-02-13T15:33:21.777Z,10.80
2023-02-13T15:38:36.861Z,10.55
2023-02-13T15:43:51.769Z,9.93
2023-02-13T15:49:07.111Z,8.48
2023-02-13T15:54:22.594Z,9.13
2023-02-13T15:59:37.713Z,9.55
2023-02-13T16:04:53.044Z,9.68
2023-02-13T16:10:08.776Z,8.38
2023-02-13T16:15:23.777Z,9.25
2023-02-13T16:20:38.832Z,8.65
2023-02-13T16:25:54.131Z,7.38
2023-02-13T16:31:10.240Z,7.90
2023-02-13T16:36:25.534Z,8.48
2023-02-13T16:41:40.770Z,7.05
2023-02-13T16:46:55.815Z,6.60
2023-02-13T16:52:10.799Z,7.40
2023-02-13T16:57:25.887Z,6.43
2023-02-13T17:02:40.840Z,7.80
2023-02-13T17:07:55.785Z,7.07
2023-02-13T17:13:10.789Z,7.35
2023-02-13T17:18:26.129Z,6.72
2023-02-13T17:23:41.818Z,7.82
2023-02-13T17:28:56.739Z,7.25
2023-02-13T17:34:11.794Z,7.28
2023-02-13T17:39:26.754Z,7.00
2023-02-13T17:44:42.091Z,6.72
2023-02-13T17:50:08.496Z,7.10
2023-02-13T17:55:24.859Z,6.85
2023-02-13T18:00:39.534Z,7.38
2023-02-13T18:05:55.748Z,6.60
2023-02-13T18:11:10.802Z,6.60
2023-02-13T18:16:25.821Z,7.00
2023-02-13T18:21:40.508Z,6.03
2023-02-13T18:26:56.151Z,6.43
2023-02-13T18:32:12.119Z,5.97
2023-02-13T18:37:27.836Z,5.90
2023-02-13T18:42:43.108Z,6.70
2023-02-13T18:47:58.803Z,6.30
2023-02-13T18:53:13.768Z,5.72
2023-02-13T18:58:28.732Z,6.22
2023-02-13T19:03:43.591Z,6.03
2023-02-13T19:08:58.781Z,6.55
2023-02-13T19:14:13.788Z,5.60
2023-02-13T19:19:28.775Z,5.65
2023-02-13T19:24:43.763Z,5.95
2023-02-13T19:29:58.807Z,5.75
2023-02-13T19:35:13.806Z,5.43
2023-02-13T19:40:28.752Z,5.65
2023-02-13T19:45:44.076Z,5.82
2023-02-13T19:51:00.380Z,6.40
2023-02-13T19:56:15.553Z,6.38
2023-02-13T20:01:30.571Z,5.55
2023-02-13T20:06:46.191Z,5.93
2023-02-13T20:12:02.144Z,7.30
2023-02-13T20:17:17.825Z,5.97
2023-02-13T20:22:32.802Z,6.97
2023-02-13T20:27:48.146Z,6.63
2023-02-13T20:33:03.771Z,6.93
2023-02-13T20:38:18.880Z,7.15
2023-02-13T20:43:33.587Z,6.43
2023-02-13T20:48:48.798Z,5.72
2023-02-13T20:54:04.089Z,6.07
2023-02-13T20:59:19.592Z,6.28
2023-02-13T21:04:35.239Z,5.20
2023-02-13T21:09:50.761Z,5.43
2023-02-13T21:15:05.822Z,5.97
2023-02-13T21:20:20.810Z,6.18
2023-02-13T21:25:35.807Z,6.80
2023-02-13T21:30:51.147Z,5.72
2023-02-13T21:36:07.237Z,6.45
2023-02-13T21:41:23.113Z,5.60
2023-02-13T21:46:38.841Z,6.28
2023-02-13T21:52:32.097Z,6.40
2023-02-13T21:57:47.777Z,6.00
2023-02-13T22:03:03.231Z,6.00
2023-02-13T22:08:19.159Z,6.43
2023-02-13T22:13:35.884Z,6.00
2023-02-13T22:18:50.772Z,5.82
2023-02-13T22:24:05.652Z,5.20
2023-02-13T22:29:20.810Z,5.50
2023-02-13T22:34:35.810Z,5.47
2023-02-13T22:39:50.910Z,5.13
2023-02-13T22:45:05.848Z,5.70
2023-02-13T22:50:21.067Z,5.32
2023-02-13T22:55:36.828Z,5.25
2023-02-13T23:00:51.762Z,5.18
2023-02-13T23:06:06.808Z,4.43
2023-02-13T23:11:22.169Z,5.18
2023-02-13T23:16:37.789Z,5.97
2023-02-13T23:21:52.765Z,4.50
2023-02-13T23:27:07.853Z,5.20
2023-02-13T23:32:23.113Z,5.00
2023-02-13T23:37:38.764Z,5.00
2023-02-13T23:42:53.851Z,5.20
2023-02-13T23:48:08.739Z,5.40
2023-02-13T23:53:23.860Z,4.78
2023-02-13T23:58:39.783Z,4.93
